Time;durP1;ratioP1;P1;durP2;ratioP2;P2;SDS_P1;SDS_P2;PMS_P1;PMS_P2;Temp;Humidity;BMP_temperature;BMP_pressure;BME280_temperature;BME280_humidity;BME280_pressure;Samples;Min_cycle;Max_cycle;Signal;HPM_P1;HPM_P2
2023/05/21 05:00:26;;;;;;;22.10;19.87;;;17.00;97.20;;;;;;1729131;28;20181;-73
2023/05/21 05:01:18;;;;;;;20.95;18.95;;;17.10;97.20;;;;;;1728100;28;20695;-72
2023/05/21 05:02:09;;;;;;;21.17;19.08;;;17.10;97.20;;;;;;1726905;28;20656;-72
2023/05/21 05:03:00;;;;;;;21.55;19.55;;;17.10;97.20;;;;;;1724508;28;20197;-72
2023/05/21 05:03:52;;;;;;;20.70;18.70;;;17.10;97.20;;;;;;1726074;28;20192;-72
2023/05/21 05:04:42;;;;;;;22.92;20.63;;;17.10;97.20;;;;;;1727951;28;20208;-73
2023/05/21 05:05:33;;;;;;;22.20;20.10;;;17.10;97.20;;;;;;1728049;28;20216;-72
2023/05/21 05:06:25;;;;;;;21.83;19.67;;;17.10;97.20;;;;;;1725981;28;20683;-73
2023/05/21 05:07:16;;;;;;;23.00;20.83;;;17.10;97.20;;;;;;1726668;28;20204;-72
2023/05/21 05:08:08;;;;;;;26.85;19.70;;;17.10;97.20;;;;;;1728003;28;20211;-73
2023/05/21 05:09:05;;;;;;;21.77;19.60;;;17.10;97.20;;;;;;1728070;28;20197;-73
2023/05/21 05:09:57;;;;;;;21.63;19.65;;;17.10;97.20;;;;;;1727570;28;20691;-72
2023/05/21 05:10:47;;;;;;;21.25;19.25;;;17.20;97.20;;;;;;1728004;28;20224;-72
2023/05/21 05:11:39;;;;;;;22.03;19.97;;;17.20;97.20;;;;;;1728105;28;20196;-73
2023/05/21 05:12:30;;;;;;;21.48;19.58;;;17.20;97.20;;;;;;1727813;28;20208;-72
2023/05/21 05:13:21;;;;;;;21.17;19.27;;;17.20;97.20;;;;;;1723792;28;20201;-72
2023/05/21 05:14:12;;;;;;;20.02;18.23;;;17.20;97.20;;;;;;1727969;28;20204;-73
2023/05/21 05:15:04;;;;;;;22.37;20.27;;;17.20;97.20;;;;;;1724409;28;20203;-73
2023/05/21 05:15:56;;;;;;;20.80;18.92;;;17.20;97.20;;;;;;1721253;28;20316;-73
2023/05/21 05:16:48;;;;;;;20.08;18.15;;;17.30;97.20;;;;;;1721278;28;20320;-73
2023/05/21 05:17:39;;;;;;;22.20;20.25;;;17.30;97.20;;;;;;1721234;28;20212;-72
2023/05/21 05:18:30;;;;;;;20.67;18.80;;;17.30;97.20;;;;;;1721312;28;20208;-73
2023/05/21 05:19:21;;;;;;;20.92;19.02;;;17.30;97.20;;;;;;1726618;28;20200;-73
2023/05/21 05:20:13;;;;;;;21.30;19.40;;;17.30;97.20;;;;;;1727909;28;20211;-72
2023/05/21 05:21:04;;;;;;;21.45;19.48;;;17.30;97.20;;;;;;1729001;28;20581;-73
2023/05/21 05:21:55;;;;;;;21.37;18.73;;;17.30;97.20;;;;;;1728024;28;20561;-72
2023/05/21 05:22:46;;;;;;;21.90;19.55;;;17.40;97.20;;;;;;1727552;28;20638;-72
2023/05/21 05:23:38;;;;;;;21.33;19.33;;;17.40;97.20;;;;;;1727408;28;20196;-72
2023/05/21 05:24:28;;;;;;;20.83;18.83;;;17.40;97.20;;;;;;1727912;28;20208;-72
2023/05/21 05:25:20;;;;;;;22.70;20.50;;;17.40;97.20;;;;;;1727945;28;20204;-73
2023/05/21 05:26:11;;;;;;;21.33;19.52;;;17.40;97.20;;;;;;1727649;28;20588;-73
2023/05/21 05:27:03;;;;;;;20.70;18.80;;;17.40;97.20;;;;;;1727912;28;20223;-72
2023/05/21 05:27:54;;;;;;;21.30;19.33;;;17.40;97.20;;;;;;1725584;28;20194;-72
2023/05/21 05:28:45;;;;;;;21.03;19.13;;;17.50;97.20;;;;;;1727852;28;20231;-73
2023/05/21 05:29:38;;;;;;;21.42;19.33;;;17.50;97.20;;;;;;1730265;28;20241;-73
2023/05/21 05:30:29;;;;;;;21.33;19.25;;;17.50;97.20;;;;;;1727803;28;20694;-73
2023/05/21 05:31:22;;;;;;;21.93;20.03;;;17.50;97.20;;;;;;1730595;28;20761;-72
2023/05/21 05:32:13;;;;;;;21.38;19.38;;;17.50;97.20;;;;;;1728053;28;20230;-72
2023/05/21 05:33:05;;;;;;;22.30;20.30;;;17.60;97.20;;;;;;1720910;28;20201;-73
2023/05/21 05:33:56;;;;;;;21.40;19.20;;;17.60;97.20;;;;;;1723657;28;20205;-73
2023/05/21 05:34:48;;;;;;;20.02;18.20;;;17.60;97.20;;;;;;1727490;28;20193;-73
2023/05/21 05:35:38;;;;;;;23.75;21.55;;;17.60;97.20;;;;;;1724132;28;20562;-72
2023/05/21 05:36:31;;;;;;;20.60;18.80;;;17.60;97.20;;;;;;1727769;28;20640;-72
2023/05/21 05:37:21;;;;;;;20.70;18.90;;;17.70;97.20;;;;;;1727591;28;20201;-72
2023/05/21 05:38:13;;;;;;;23.10;20.70;;;17.70;97.20;;;;;;1727723;28;20196;-72
2023/05/21 05:39:04;;;;;;;22.63;20.55;;;17.70;97.20;;;;;;1727860;28;20205;-72
2023/05/21 05:39:56;;;;;;;22.70;20.45;;;17.70;97.20;;;;;;1727564;28;20192;-72
2023/05/21 05:40:46;;;;;;;21.20;19.00;;;17.70;97.20;;;;;;1727736;28;20650;-72
2023/05/21 05:41:38;;;;;;;22.20;20.10;;;17.80;97.20;;;;;;1727787;28;20584;-72
2023/05/21 05:42:29;;;;;;;22.80;20.70;;;17.80;97.20;;;;;;1727593;28;20200;-69
2023/05/21 05:43:21;;;;;;;20.67;18.77;;;17.80;97.20;;;;;;1727927;28;20674;-72
2023/05/21 05:44:11;;;;;;;22.88;20.67;;;17.80;97.20;;;;;;1727825;28;20216;-73
2023/05/21 05:45:04;;;;;;;20.97;19.07;;;17.90;97.20;;;;;;1727868;28;20200;-73
2023/05/21 05:45:54;;;;;;;22.48;20.35;;;17.90;97.20;;;;;;1727622;28;20582;-73
2023/05/21 05:46:47;;;;;;;20.97;19.13;;;17.90;97.20;;;;;;1727842;28;20559;-73
2023/05/21 05:47:38;;;;;;;21.80;19.65;;;17.90;97.20;;;;;;1727611;28;20203;-73
2023/05/21 05:48:30;;;;;;;21.20;19.30;;;17.90;97.20;;;;;;1727852;28;20196;-73
2023/05/21 05:49:20;;;;;;;22.58;20.38;;;18.00;97.20;;;;;;1727852;28;20615;-74
2023/05/21 05:50:12;;;;;;;21.23;19.30;;;18.00;97.20;;;;;;1727786;28;20228;-73
2023/05/21 05:51:03;;;;;;;21.08;19.05;;;18.00;97.20;;;;;;1726884;28;20626;-74
2023/05/21 05:51:55;;;;;;;21.40;19.50;;;18.00;97.20;;;;;;1727827;28;20222;-74
2023/05/21 05:52:46;;;;;;;20.55;18.60;;;18.00;97.20;;;;;;1727534;28;20483;-72
2023/05/21 05:53:37;;;;;;;20.83;18.87;;;18.10;97.20;;;;;;1727778;28;20205;-71
2023/05/21 05:54:28;;;;;;;20.83;18.83;;;18.10;97.20;;;;;;1727692;28;20212;-73
2023/05/21 05:55:20;;;;;;;21.60;19.73;;;18.10;97.20;;;;;;1727792;28;20197;-73
2023/05/21 05:56:11;;;;;;;20.48;18.45;;;18.10;97.20;;;;;;1727892;28;20209;-73
2023/05/21 05:57:03;;;;;;;20.43;18.63;;;18.20;97.20;;;;;;1727733;28;20209;-73
2023/05/21 05:57:54;;;;;;;21.23;19.33;;;18.20;97.20;;;;;;1727512;28;20196;-72
2023/05/21 05:58:45;;;;;;;20.30;18.40;;;18.20;97.20;;;;;;1727843;28;20200;-73
2023/05/21 05:59:36;;;;;;;21.27;19.08;;;18.30;97.20;;;;;;1727540;28;20204;-73
2023/05/21 06:00:28;;;;;;;20.43;18.47;;;18.30;97.20;;;;;;1727666;28;20200;-73
2023/05/21 06:01:19;;;;;;;20.30;18.40;;;18.30;97.20;;;;;;1727780;28;20208;-73
2023/05/21 06:02:12;;;;;;;20.60;18.70;;;18.30;97.20;;;;;;1727169;28;20606;-73
2023/05/21 06:03:04;;;;;;;19.35;17.55;;;18.40;97.20;;;;;;1726677;28;20227;-73
2023/05/21 06:03:56;;;;;;;19.75;17.90;;;18.40;97.20;;;;;;1727051;28;20581;-73
2023/05/21 06:04:47;;;;;;;20.17;18.38;;;18.40;97.20;;;;;;1727528;28;20687;-72
2023/05/21 06:05:38;;;;;;;19.37;17.57;;;18.50;97.20;;;;;;1726981;28;20670;-73
2023/05/21 06:06:30;;;;;;;21.00;18.88;;;18.50;97.20;;;;;;1727031;28;20205;-73
2023/05/21 06:07:22;;;;;;;20.98;19.08;;;18.50;97.20;;;;;;1727055;28;20201;-73
2023/05/21 06:08:12;;;;;;;20.52;18.52;;;18.50;97.20;;;;;;1727154;28;20208;-73
2023/05/21 06:09:04;;;;;;;20.10;18.20;;;18.50;97.20;;;;;;1727550;28;20202;-73
2023/05/21 06:09:55;;;;;;;20.45;18.48;;;18.60;97.20;;;;;;1727727;28;20209;-73
2023/05/21 06:10:46;;;;;;;21.10;19.23;;;18.60;97.20;;;;;;1727713;28;20224;-72
2023/05/21 06:11:37;;;;;;;20.75;18.77;;;18.70;97.20;;;;;;1727488;28;20262;-72
2023/05/21 06:12:29;;;;;;;20.83;18.90;;;18.70;97.20;;;;;;1727354;28;20195;-73
2023/05/21 06:13:20;;;;;;;19.67;17.75;;;18.70;97.20;;;;;;1727363;28;20199;-72
2023/05/21 06:14:11;;;;;;;21.20;19.30;;;18.70;97.20;;;;;;1727629;28;20203;-73
2023/05/21 06:15:03;;;;;;;19.67;17.83;;;18.70;97.20;;;;;;1727704;28;20691;-73
2023/05/21 06:15:53;;;;;;;21.23;19.25;;;18.80;97.20;;;;;;1727693;28;20204;-73
2023/05/21 06:16:45;;;;;;;20.67;18.80;;;18.80;97.20;;;;;;1727617;28;20232;-73
2023/05/21 06:17:37;;;;;;;20.75;18.85;;;18.80;97.20;;;;;;1727581;28;20235;-73
2023/05/21 06:18:29;;;;;;;20.65;18.80;;;18.90;97.20;;;;;;1727537;28;20257;-73
2023/05/21 06:19:19;;;;;;;21.77;19.67;;;18.90;97.20;;;;;;1727570;28;20201;-73
2023/05/21 06:20:12;;;;;;;21.27;19.10;;;18.90;97.20;;;;;;1727541;28;20268;-70
2023/05/21 06:21:02;;;;;;;20.45;18.60;;;18.90;97.20;;;;;;1727561;28;20211;-71
2023/05/21 06:21:54;;;;;;;19.67;17.87;;;18.90;97.20;;;;;;1727798;28;20283;-71
2023/05/21 06:22:45;;;;;;;20.80;18.90;;;19.00;97.20;;;;;;1727272;28;20573;-73
2023/05/21 06:23:37;;;;;;;21.43;19.50;;;19.00;97.20;;;;;;1727621;28;20206;-73
2023/05/21 06:24:28;;;;;;;21.25;19.17;;;19.00;97.20;;;;;;1727546;28;20894;-72
2023/05/21 06:25:20;;;;;;;20.63;18.80;;;19.10;97.20;;;;;;1727610;28;20204;-73
2023/05/21 06:26:11;;;;;;;21.33;19.45;;;19.10;97.20;;;;;;1727633;28;20213;-73
2023/05/21 06:27:03;;;;;;;21.53;19.43;;;19.10;97.20;;;;;;1727677;28;20283;-73
2023/05/21 06:27:55;;;;;;;19.70;17.90;;;19.20;97.20;;;;;;1727648;28;20262;-73
2023/05/21 06:28:47;;;;;;;20.02;18.08;;;19.20;97.20;;;;;;1727326;28;20188;-73
2023/05/21 06:29:39;;;;;;;19.52;17.83;;;19.20;97.20;;;;;;1727675;28;20205;-73
2023/05/21 06:30:31;;;;;;;20.30;18.50;;;19.30;97.20;;;;;;1727479;28;20220;-73
2023/05/21 06:31:22;;;;;;;19.60;17.75;;;19.30;97.20;;;;;;1727437;28;20227;-73
2023/05/21 06:32:13;;;;;;;20.13;18.23;;;19.30;97.20;;;;;;1727596;28;20210;-73
2023/05/21 06:33:05;;;;;;;20.48;18.52;;;19.40;97.20;;;;;;1727228;28;20566;-73
2023/05/21 06:33:57;;;;;;;19.88;18.17;;;19.40;97.20;;;;;;1727485;28;20574;-73
2023/05/21 06:34:48;;;;;;;19.98;18.17;;;19.40;97.20;;;;;;1727555;28;20208;-73
2023/05/21 06:35:40;;;;;;;19.90;18.20;;;19.50;97.20;;;;;;1727624;28;20204;-73
2023/05/21 06:36:31;;;;;;;20.98;19.08;;;19.50;97.20;;;;;;1727533;28;20277;-73
2023/05/21 06:37:22;;;;;;;19.85;18.05;;;19.50;97.20;;;;;;1727477;28;20193;-73
2023/05/21 06:38:13;;;;;;;18.15;16.45;;;19.60;97.20;;;;;;1727587;28;20231;-73
2023/05/21 06:39:05;;;;;;;20.63;18.73;;;19.60;97.20;;;;;;1727596;28;20228;-73
2023/05/21 06:39:55;;;;;;;19.70;17.77;;;19.60;97.20;;;;;;1727552;28;20216;-73
2023/05/21 06:40:48;;;;;;;20.37;18.47;;;19.60;97.20;;;;;;1727551;28;20223;-73
2023/05/21 06:41:39;;;;;;;21.63;19.58;;;19.70;97.20;;;;;;1727734;28;20204;-73
2023/05/21 06:42:30;;;;;;;20.53;18.53;;;19.70;97.20;;;;;;1727184;28;20228;-73
2023/05/21 06:43:21;;;;;;;20.13;18.23;;;19.70;97.20;;;;;;1727524;28;20200;-73
2023/05/21 06:44:14;;;;;;;19.27;17.50;;;19.80;97.20;;;;;;1727519;28;20201;-74
2023/05/21 06:45:06;;;;;;;20.20;18.25;;;19.80;97.20;;;;;;1727216;28;20734;-73
2023/05/21 06:45:59;;;;;;;19.48;17.67;;;19.80;97.20;;;;;;1727514;28;20196;-73
2023/05/21 06:46:49;;;;;;;19.55;17.65;;;19.90;97.20;;;;;;1727542;28;20611;-73
2023/05/21 06:47:41;;;;;;;19.80;17.90;;;19.90;97.20;;;;;;1727461;28;20197;-72
2023/05/21 06:48:33;;;;;;;19.60;17.90;;;19.90;97.20;;;;;;1727603;28;20209;-73
2023/05/21 06:49:25;;;;;;;19.80;17.90;;;20.00;97.20;;;;;;1727490;28;20208;-72
2023/05/21 06:50:16;;;;;;;18.90;17.15;;;20.00;97.20;;;;;;1727365;28;20232;-73
2023/05/21 06:51:07;;;;;;;19.67;17.87;;;20.00;97.20;;;;;;1727415;28;20199;-73
2023/05/21 06:51:58;;;;;;;20.40;18.58;;;20.10;97.20;;;;;;1727357;28;20518;-74
2023/05/21 06:52:50;;;;;;;20.43;18.17;;;20.10;97.20;;;;;;1727179;28;20203;-73
2023/05/21 06:53:41;;;;;;;19.83;17.95;;;20.10;97.20;;;;;;1727346;28;20204;-74
2023/05/21 06:54:33;;;;;;;19.57;17.70;;;20.20;97.20;;;;;;1727482;28;20275;-72
2023/05/21 06:55:24;;;;;;;19.88;18.05;;;20.20;97.20;;;;;;1727510;28;20204;-74
2023/05/21 06:56:15;;;;;;;20.13;17.87;;;20.20;97.20;;;;;;1727491;28;20291;-72
2023/05/21 06:57:06;;;;;;;18.97;17.33;;;20.30;97.20;;;;;;1727505;28;20287;-73
2023/05/21 06:57:57;;;;;;;18.70;17.00;;;20.30;97.20;;;;;;1727388;28;20208;-73
2023/05/21 06:58:49;;;;;;;19.40;17.50;;;20.30;97.20;;;;;;1727482;28;20204;-73
2023/05/21 06:59:40;;;;;;;18.65;16.75;;;20.40;97.20;;;;;;1727266;28;20452;-73
2023/05/21 07:00:31;;;;;;;17.67;16.07;;;20.40;97.20;;;;;;1727441;28;20216;-74
2023/05/21 07:01:23;;;;;;;17.83;16.23;;;20.50;97.20;;;;;;1727034;28;20444;-74
2023/05/21 07:02:15;;;;;;;18.00;16.33;;;20.50;97.20;;;;;;1727289;28;20213;-75
2023/05/21 07:03:06;;;;;;;18.73;17.02;;;20.60;97.20;;;;;;1727049;28;20208;-74
2023/05/21 07:03:59;;;;;;;17.17;15.50;;;20.60;97.20;;;;;;1727340;28;20197;-75
2023/05/21 07:04:50;;;;;;;17.45;15.85;;;20.70;97.20;;;;;;1727466;28;20205;-75
2023/05/21 07:05:42;;;;;;;16.23;14.55;;;20.80;97.20;;;;;;1727383;28;20204;-75
2023/05/21 07:06:33;;;;;;;18.20;16.50;;;20.80;97.20;;;;;;1727400;28;20209;-73
2023/05/21 07:07:26;;;;;;;18.13;16.58;;;20.80;97.20;;;;;;1727418;28;20392;-73
2023/05/21 07:08:18;;;;;;;17.73;16.23;;;20.90;97.20;;;;;;1727598;28;20211;-73
2023/05/21 07:09:10;;;;;;;16.92;15.43;;;20.90;97.20;;;;;;1727155;28;20196;-73
2023/05/21 07:10:01;;;;;;;18.02;16.48;;;21.00;97.20;;;;;;1727176;28;20718;-73
2023/05/21 07:10:52;;;;;;;17.13;15.53;;;21.00;97.20;;;;;;1727141;28;20621;-73
2023/05/21 07:11:43;;;;;;;18.40;16.60;;;21.00;97.20;;;;;;1726661;28;20740;-72
2023/05/21 07:12:35;;;;;;;18.03;16.43;;;21.10;97.20;;;;;;1726457;28;20602;-73
2023/05/21 07:13:26;;;;;;;16.90;15.40;;;21.10;97.20;;;;;;1726664;28;20578;-73
2023/05/21 07:14:18;;;;;;;17.37;15.80;;;21.10;97.20;;;;;;1726646;28;20204;-73
2023/05/21 07:15:09;;;;;;;17.20;15.70;;;21.20;97.20;;;;;;1726677;28;20835;-73
2023/05/21 07:16:01;;;;;;;16.63;15.13;;;21.20;97.20;;;;;;1726839;28;20267;-72
2023/05/21 07:16:52;;;;;;;17.05;15.45;;;21.30;97.20;;;;;;1726777;28;20200;-73
2023/05/21 07:17:44;;;;;;;17.10;15.63;;;21.30;97.20;;;;;;1726421;28;20196;-73
2023/05/21 07:18:35;;;;;;;17.05;15.35;;;21.40;97.20;;;;;;1726549;28;20882;-73
2023/05/21 07:19:28;;;;;;;17.57;15.97;;;21.40;97.20;;;;;;1726642;28;20664;-72
2023/05/21 07:20:19;;;;;;;17.40;15.90;;;21.40;97.20;;;;;;1726544;28;20564;-73
2023/05/21 07:21:11;;;;;;;18.67;16.83;;;21.50;97.20;;;;;;1726774;28;20304;-73
2023/05/21 07:22:01;;;;;;;18.50;16.80;;;21.50;97.20;;;;;;1726725;28;20228;-73
2023/05/21 07:22:53;;;;;;;17.20;15.50;;;21.50;97.20;;;;;;1726429;28;20203;-73
2023/05/21 07:23:44;;;;;;;16.70;15.30;;;21.50;97.20;;;;;;1726642;28;20208;-72
2023/05/21 07:24:36;;;;;;;17.73;15.90;;;21.50;97.20;;;;;;1726650;28;20204;-71
2023/05/21 07:25:26;;;;;;;18.35;16.42;;;21.50;97.20;;;;;;1726751;28;20591;-71
2023/05/21 07:26:18;;;;;;;16.20;14.80;;;21.60;97.20;;;;;;1726828;28;20214;-71
2023/05/21 07:27:09;;;;;;;16.35;14.75;;;21.60;97.20;;;;;;1727216;28;20215;-71
2023/05/21 07:28:01;;;;;;;16.97;15.37;;;21.70;97.20;;;;;;1727396;28;20206;-71
2023/05/21 07:28:51;;;;;;;16.02;14.38;;;21.70;97.20;;;;;;1727301;28;20447;-71
2023/05/21 07:29:43;;;;;;;16.13;14.73;;;21.80;97.20;;;;;;1727395;28;20201;-71
2023/05/21 07:30:34;;;;;;;15.13;13.82;;;21.90;97.20;;;;;;1727013;28;20239;-71
2023/05/21 07:31:26;;;;;;;17.47;15.90;;;22.00;97.20;;;;;;1727334;28;20196;-71
2023/05/21 07:32:16;;;;;;;17.02;15.40;;;22.00;97.20;;;;;;1727201;28;20201;-71
2023/05/21 07:33:08;;;;;;;16.77;15.37;;;22.10;97.20;;;;;;1727058;28;20201;-71
2023/05/21 07:33:59;;;;;;;16.15;14.65;;;22.10;97.20;;;;;;1727156;28;20726;-71
2023/05/21 07:34:52;;;;;;;16.97;15.40;;;22.10;97.20;;;;;;1727113;28;20648;-71
2023/05/21 07:35:42;;;;;;;15.85;14.45;;;22.10;97.20;;;;;;1727263;28;20204;-71
2023/05/21 07:36:34;;;;;;;17.50;15.90;;;22.20;97.20;;;;;;1727350;28;20201;-71
2023/05/21 07:37:26;;;;;;;17.52;15.82;;;22.20;97.20;;;;;;1727443;28;20211;-71
2023/05/21 07:38:18;;;;;;;18.15;16.55;;;22.20;97.20;;;;;;1727512;28;20192;-71
2023/05/21 07:39:09;;;;;;;17.08;15.43;;;22.20;97.20;;;;;;1727399;28;20207;-71
2023/05/21 07:40:01;;;;;;;17.65;15.95;;;22.20;97.20;;;;;;1727286;28;20228;-73
2023/05/21 07:40:51;;;;;;;16.45;14.95;;;22.20;97.20;;;;;;1727368;28;20231;-72
2023/05/21 07:41:43;;;;;;;17.23;15.60;;;22.20;97.20;;;;;;1727468;28;20203;-71
2023/05/21 07:42:34;;;;;;;15.75;14.25;;;22.20;97.20;;;;;;1726959;28;20236;-71
2023/05/21 07:43:26;;;;;;;17.07;15.57;;;22.20;97.20;;;;;;1727448;28;20202;-71
2023/05/21 07:44:16;;;;;;;16.75;15.35;;;22.20;97.20;;;;;;1727129;28;20204;-71
2023/05/21 07:45:09;;;;;;;16.43;14.93;;;22.20;97.20;;;;;;1727278;28;20196;-71
2023/05/21 07:46:00;;;;;;;15.75;14.30;;;22.30;97.20;;;;;;1727349;28;20201;-72
2023/05/21 07:46:51;;;;;;;16.43;14.57;;;22.30;97.20;;;;;;1727299;28;20206;-71
2023/05/21 07:47:45;;;;;;;15.90;14.55;;;22.40;97.20;;;;;;1727303;28;20200;-71
2023/05/21 07:48:36;;;;;;;15.60;14.18;;;22.40;97.20;;;;;;1727476;28;20421;-72
2023/05/21 07:49:27;;;;;;;17.33;15.68;;;22.40;97.20;;;;;;1727243;28;20207;-71
2023/05/21 07:50:21;;;;;;;17.03;15.53;;;22.40;97.20;;;;;;1727184;28;20204;-72
2023/05/21 07:51:12;;;;;;;16.52;15.02;;;22.50;97.20;;;;;;1726914;28;20215;-71
2023/05/21 07:52:05;;;;;;;16.98;15.30;;;22.60;97.20;;;;;;1727101;28;20230;-72
2023/05/21 07:52:55;;;;;;;16.48;15.00;;;22.60;97.20;;;;;;1726913;28;20208;-72
2023/05/21 07:53:47;;;;;;;17.17;15.60;;;22.70;97.20;;;;;;1727224;28;20209;-72
2023/05/21 07:54:38;;;;;;;16.35;14.90;;;22.80;97.20;;;;;;1727291;28;20200;-72
2023/05/21 07:55:30;;;;;;;15.70;14.30;;;22.80;97.20;;;;;;1727290;28;20660;-71
2023/05/21 07:56:21;;;;;;;15.55;14.15;;;22.90;97.20;;;;;;1727222;28;20583;-71
2023/05/21 07:57:13;;;;;;;15.70;14.38;;;23.00;97.20;;;;;;1727177;28;20204;-71
2023/05/21 07:58:04;;;;;;;17.13;15.52;;;23.00;97.20;;;;;;1727091;28;20197;-72
2023/05/21 07:58:56;;;;;;;15.82;14.43;;;23.10;97.20;;;;;;1727242;28;20683;-74
2023/05/21 07:59:47;;;;;;;16.02;14.30;;;23.20;97.20;;;;;;1727309;28;20209;-71
2023/05/21 08:00:45;;;;;;;14.43;13.23;;;23.20;97.20;;;;;;1727131;28;20216;-71
2023/05/21 08:01:36;;;;;;;15.85;14.35;;;23.30;97.20;;;;;;1727232;28;20216;-74
2023/05/21 08:02:28;;;;;;;14.88;13.38;;;23.40;97.20;;;;;;1726796;28;20197;-71
2023/05/21 08:03:19;;;;;;;15.75;14.25;;;23.50;97.20;;;;;;1727156;28;20315;-72
2023/05/21 08:04:12;;;;;;;14.90;13.60;;;23.60;97.20;;;;;;1727143;28;20332;-72
2023/05/21 08:05:03;;;;;;;15.13;13.88;;;23.70;97.20;;;;;;1727165;28;20439;-72
2023/05/21 08:05:56;;;;;;;15.82;14.40;;;23.80;97.20;;;;;;1727300;28;20266;-72
2023/05/21 08:06:47;;;;;;;14.18;12.80;;;23.90;97.20;;;;;;1727195;28;20239;-72
2023/05/21 08:07:39;;;;;;;14.70;13.30;;;23.90;97.20;;;;;;1726850;28;20200;-72
2023/05/21 08:08:30;;;;;;;16.17;14.57;;;23.90;97.20;;;;;;1727175;28;20454;-73
2023/05/21 08:09:22;;;;;;;14.40;13.10;;;24.00;97.20;;;;;;1727142;28;20661;-72
2023/05/21 08:10:13;;;;;;;14.00;12.90;;;24.00;97.20;;;;;;1727050;28;20431;-72
2023/05/21 08:11:04;;;;;;;16.30;13.10;;;24.10;97.20;;;;;;1727154;28;20200;-72
2023/05/21 08:11:55;;;;;;;16.00;14.45;;;24.10;97.20;;;;;;1727101;28;20219;-72
2023/05/21 08:12:47;;;;;;;13.93;12.80;;;24.20;97.20;;;;;;1726812;28;20208;-72
2023/05/21 08:13:38;;;;;;;15.60;14.18;;;24.30;97.20;;;;;;1727067;28;20201;-72
2023/05/21 08:14:29;;;;;;;15.73;14.23;;;24.30;97.20;;;;;;1727711;28;20200;-72
2023/05/21 08:15:20;;;;;;;14.50;13.27;;;24.30;97.20;;;;;;1728408;28;20200;-72
2023/05/21 08:16:12;;;;;;;16.33;14.67;;;24.30;97.20;;;;;;1728506;28;20197;-73
2023/05/21 08:17:03;;;;;;;14.63;13.40;;;24.20;97.20;;;;;;1728351;28;20272;-73
2023/05/21 08:17:54;;;;;;;14.27;12.98;;;24.20;97.20;;;;;;1728632;28;20200;-72
2023/05/21 08:18:45;;;;;;;15.07;13.77;;;24.20;97.20;;;;;;1728546;28;20683;-72
2023/05/21 08:19:37;;;;;;;16.30;14.17;;;24.20;97.20;;;;;;1728464;28;20646;-72
2023/05/21 08:20:29;;;;;;;14.75;13.55;;;24.30;97.20;;;;;;1728405;28;20663;-72
2023/05/21 08:21:22;;;;;;;14.93;13.65;;;24.40;97.20;;;;;;1728365;28;20197;-72
2023/05/21 08:22:13;;;;;;;15.40;14.00;;;24.40;97.20;;;;;;1728459;28;20564;-72
2023/05/21 08:23:05;;;;;;;14.70;13.50;;;24.50;97.20;;;;;;1728026;28;20262;-72
2023/05/21 08:23:56;;;;;;;14.30;13.00;;;24.50;97.20;;;;;;1728074;28;20205;-72
2023/05/21 08:24:48;;;;;;;14.20;13.00;;;24.60;97.20;;;;;;1728485;28;20200;-72
2023/05/21 08:25:38;;;;;;;13.45;12.35;;;24.70;97.20;;;;;;1728372;28;20274;-72
2023/05/21 08:26:30;;;;;;;13.93;12.70;;;24.70;97.20;;;;;;1728376;28;20196;-72
2023/05/21 08:27:21;;;;;;;12.88;11.75;;;24.80;97.20;;;;;;1728328;28;20288;-72
2023/05/21 08:28:13;;;;;;;13.47;12.07;;;24.80;97.20;;;;;;1728441;28;20687;-72
2023/05/21 08:29:04;;;;;;;13.40;12.30;;;24.90;97.20;;;;;;1728342;28;20672;-73
2023/05/21 08:29:56;;;;;;;13.13;11.93;;;25.00;97.20;;;;;;1728428;28;20200;-72
2023/05/21 08:30:46;;;;;;;13.57;12.38;;;25.10;97.20;;;;;;1728196;28;20239;-73
2023/05/21 08:31:39;;;;;;;14.00;12.80;;;25.20;97.20;;;;;;1728285;28;20207;-73
2023/05/21 08:32:30;;;;;;;13.40;12.38;;;25.20;97.20;;;;;;1727910;28;20228;-73
2023/05/21 08:33:21;;;;;;;13.90;12.70;;;25.30;97.20;;;;;;1728315;28;20459;-73
2023/05/21 08:34:12;;;;;;;16.55;13.10;;;25.40;97.20;;;;;;1728278;28;20211;-73
2023/05/21 08:35:04;;;;;;;14.30;13.00;;;25.40;97.20;;;;;;1728225;28;20203;-73
2023/05/21 08:35:56;;;;;;;14.05;12.75;;;25.40;97.20;;;;;;1728261;28;20491;-73
2023/05/21 08:36:48;;;;;;;13.70;12.50;;;25.40;97.20;;;;;;1728266;28;20204;-72
2023/05/21 08:37:40;;;;;;;14.02;12.82;;;25.40;97.20;;;;;;1728296;28;20588;-72
2023/05/21 08:38:31;;;;;;;13.90;12.70;;;25.40;97.20;;;;;;1728281;28;20208;-73
2023/05/21 08:39:23;;;;;;;14.10;12.70;;;25.30;97.20;;;;;;1728250;28;20200;-72
2023/05/21 08:40:14;;;;;;;13.88;11.52;;;25.30;97.20;;;;;;1728233;28;20201;-73
2023/05/21 08:41:09;;;;;;;14.00;12.75;;;25.30;97.20;;;;;;1727952;28;20201;-72
2023/05/21 08:42:08;;;;;;;14.20;13.00;;;25.30;97.20;;;;;;1728251;28;20205;-73
2023/05/21 08:43:01;;;;;;;13.45;12.32;;;25.30;97.20;;;;;;1727708;28;20203;-73
2023/05/21 08:43:55;;;;;;;14.35;13.15;;;25.40;97.20;;;;;;1728247;28;20200;-73
2023/05/21 08:44:53;;;;;;;13.77;12.57;;;25.30;97.20;;;;;;1728191;28;20292;-73
2023/05/21 08:45:52;;;;;;;13.88;12.65;;;25.30;97.20;;;;;;1728224;28;20211;-73
2023/05/21 08:46:48;;;;;;;13.80;12.60;;;25.40;97.20;;;;;;1728213;28;20204;-73
2023/05/21 08:47:42;;;;;;;13.27;12.02;;;25.40;97.20;;;;;;1728279;28;20292;-73
2023/05/21 08:48:36;;;;;;;14.15;12.98;;;25.50;97.20;;;;;;1728274;28;20215;-72
2023/05/21 08:49:31;;;;;;;16.38;14.95;;;25.50;97.20;;;;;;1728171;28;20204;-72
2023/05/21 08:50:26;;;;;;;15.93;14.60;;;25.40;97.20;;;;;;1728159;28;20207;-72
2023/05/21 08:51:17;;;;;;;14.85;13.50;;;25.40;97.20;;;;;;1728203;28;20209;-72
2023/05/21 08:52:10;;;;;;;16.13;14.43;;;25.30;97.20;;;;;;1728071;28;20258;-73
2023/05/21 08:53:02;;;;;;;14.68;13.38;;;25.30;97.20;;;;;;1727816;28;20200;-72
2023/05/21 08:53:53;;;;;;;13.80;12.60;;;25.30;97.20;;;;;;1728156;28;20204;-73
2023/05/21 08:54:46;;;;;;;13.40;12.00;;;25.30;97.20;;;;;;1728151;28;20197;-73
2023/05/21 08:55:37;;;;;;;13.65;12.55;;;25.40;97.20;;;;;;1728139;28;20204;-72
2023/05/21 08:56:31;;;;;;;14.40;13.00;;;25.50;97.20;;;;;;1728309;28;20204;-73
2023/05/21 08:57:25;;;;;;;13.73;12.70;;;25.50;97.20;;;;;;1728000;28;20663;-73
2023/05/21 08:58:18;;;;;;;14.18;12.98;;;25.70;97.20;;;;;;1728195;28;20672;-73
2023/05/21 08:59:08;;;;;;;13.90;12.77;;;25.80;97.20;;;;;;1728158;28;20207;-73
2023/05/21 09:00:01;;;;;;;15.50;14.20;;;25.80;97.20;;;;;;1728116;28;20203;-73
2023/05/21 09:00:53;;;;;;;15.23;13.82;;;25.90;97.20;;;;;;1728100;28;20228;-73
2023/05/21 09:01:45;;;;;;;13.85;12.70;;;25.90;97.20;;;;;;1728100;28;20197;-72
2023/05/21 09:02:39;;;;;;;15.23;13.82;;;25.90;97.20;;;;;;1727849;28;20201;-72
2023/05/21 09:03:31;;;;;;;13.90;12.70;;;26.00;97.20;;;;;;1728100;28;20647;-73
2023/05/21 09:04:22;;;;;;;14.93;13.73;;;26.00;97.20;;;;;;1728053;28;20201;-72
2023/05/21 09:05:16;;;;;;;14.43;13.13;;;26.00;97.20;;;;;;1728192;28;20668;-73
2023/05/21 09:06:09;;;;;;;14.63;13.32;;;26.00;97.20;;;;;;1728055;28;20201;-73
2023/05/21 09:07:01;;;;;;;13.68;12.57;;;25.90;97.20;;;;;;1728150;28;20232;-72
2023/05/21 09:07:59;;;;;;;13.23;11.98;;;26.00;97.20;;;;;;1728159;28;20207;-73
2023/05/21 09:08:59;;;;;;;13.00;11.80;;;26.10;97.20;;;;;;1728202;28;20208;-73
2023/05/21 09:09:55;;;;;;;13.27;12.23;;;26.10;97.20;;;;;;1728452;28;20204;-73
2023/05/21 09:10:50;;;;;;;12.73;11.48;;;26.20;97.20;;;;;;1728082;28;20719;-73
2023/05/21 09:11:41;;;;;;;13.93;12.52;;;26.30;97.20;;;;;;1728094;28;20235;-72
2023/05/21 09:12:32;;;;;;;13.73;12.55;;;26.30;97.20;;;;;;1727788;28;20710;-72
2023/05/21 09:13:25;;;;;;;13.32;12.32;;;26.40;97.20;;;;;;1727777;28;20629;-73
2023/05/21 09:14:18;;;;;;;13.93;12.73;;;26.40;97.20;;;;;;1728014;28;20215;-73
2023/05/21 09:15:10;;;;;;;13.07;12.07;;;26.40;97.20;;;;;;1728034;28;20212;-72
2023/05/21 09:16:01;;;;;;;13.40;12.20;;;26.40;97.20;;;;;;1728019;28;20196;-73
2023/05/21 09:16:52;;;;;;;14.27;13.07;;;26.30;97.20;;;;;;1728134;28;20497;-72
2023/05/21 09:17:46;;;;;;;14.10;12.83;;;26.30;97.20;;;;;;1728021;28;20288;-73
2023/05/21 09:18:37;;;;;;;13.52;12.32;;;26.30;97.20;;;;;;1727963;28;20204;-72
2023/05/21 09:19:30;;;;;;;14.20;12.70;;;26.30;97.20;;;;;;1728093;28;20200;-72
2023/05/21 09:20:25;;;;;;;12.82;11.50;;;26.30;97.20;;;;;;1727890;28;20228;-72
2023/05/21 09:21:24;;;;;;;12.80;11.80;;;26.30;97.20;;;;;;1728052;28;20203;-72
2023/05/21 09:22:15;;;;;;;12.80;11.70;;;26.30;97.20;;;;;;1728070;28;20680;-73
2023/05/21 09:23:11;;;;;;;13.75;12.52;;;26.30;97.20;;;;;;1727722;28;20200;-73